createdAt,value
2022-09-21T00:01:47.050Z,102308.31
2022-09-21T00:06:49.649Z,102276.47
2022-09-21T00:11:56.358Z,102280.16
2022-09-21T00:17:02.128Z,102304.09
2022-09-21T00:22:04.696Z,102305.88
2022-09-21T00:27:07.666Z,102301.66
2022-09-21T00:32:11.559Z,102308.66
2022-09-21T00:37:14.188Z,102318.97
2022-09-21T00:42:20.031Z,102315.69
2022-09-21T00:47:28.687Z,102317.75
2022-09-21T00:52:35.138Z,102299.78
2022-09-21T00:57:38.883Z,102310.03
2022-09-21T01:02:43.395Z,102315.00
2022-09-21T01:07:48.628Z,102314.03
2022-09-21T01:13:01.876Z,102317.28
2022-09-21T01:18:13.501Z,102319.91
2022-09-21T01:23:43.414Z,102321.06
2022-09-21T01:29:12.728Z,102318.47
2022-09-21T01:34:23.720Z,102311.31
2022-09-21T01:39:28.294Z,102313.19
2022-09-21T01:44:35.444Z,102314.50
2022-09-21T01:49:42.150Z,102303.47
2022-09-21T01:54:48.748Z,102305.94
2022-09-21T01:59:55.228Z,102313.28
2022-09-21T02:04:58.847Z,102312.31
2022-09-21T02:10:02.935Z,102312.25
2022-09-21T02:15:08.479Z,102312.16
2022-09-21T02:20:20.379Z,102306.47
2022-09-21T02:25:40.472Z,102320.97
2022-09-21T02:30:54.845Z,102223.41
2022-09-21T02:36:05.844Z,102321.44
2022-09-21T02:41:17.821Z,102319.06
2022-09-21T02:46:27.671Z,102280.28
2022-09-21T02:51:32.853Z,102302.31
2022-09-21T02:56:36.613Z,102315.88
2022-09-21T03:01:42.392Z,102298.63
2022-09-21T03:06:44.966Z,102315.88
2022-09-21T03:11:47.958Z,102312.44
2022-09-21T03:16:52.304Z,102321.72
2022-09-21T03:21:55.484Z,102323.44
2022-09-21T03:26:58.250Z,102323.97
2022-09-21T03:32:02.568Z,102323.81
2022-09-21T03:37:06.998Z,102329.13
2022-09-21T03:42:10.520Z,102329.34
2022-09-21T03:47:14.402Z,102327.91
2022-09-21T03:52:16.945Z,102332.97
2022-09-21T03:57:19.510Z,102339.72
2022-09-21T04:02:23.487Z,102305.75
2022-09-21T04:07:26.190Z,102333.06
2022-09-21T04:12:29.022Z,102334.31
2022-09-21T04:17:32.899Z,102341.75
2022-09-21T04:22:41.158Z,102335.34
2022-09-21T04:27:45.794Z,102333.63
2022-09-21T04:32:49.668Z,102337.16
2022-09-21T04:37:55.646Z,102345.09
2022-09-21T04:42:58.552Z,102344.91
2022-09-21T04:48:02.990Z,102346.63
2022-09-21T04:53:05.875Z,102352.03
2022-09-21T04:58:08.427Z,102347.22
2022-09-21T05:03:12.345Z,102349.06
2022-09-21T05:08:15.631Z,102352.31
2022-09-21T05:13:19.906Z,102355.06
2022-09-21T05:18:23.841Z,102353.50
2022-09-21T05:23:29.450Z,102357.03
2022-09-21T05:28:35.526Z,102365.91
2022-09-21T05:33:49.353Z,102366.66
2022-09-21T05:38:52.448Z,102377.09
2022-09-21T05:43:56.217Z,102378.69
2022-09-21T05:49:06.842Z,102381.06
2022-09-21T05:54:14.624Z,102380.53
2022-09-21T05:59:33.796Z,102392.25
2022-09-21T06:04:38.360Z,102406.06
2022-09-21T06:09:43.211Z,102395.97
2022-09-21T06:14:45.975Z,102401.13
2022-09-21T06:19:49.885Z,102408.84
2022-09-21T06:24:52.899Z,102408.84
2022-09-21T06:29:55.826Z,102407.16
2022-09-21T06:34:59.757Z,102406.44
2022-09-21T06:40:02.733Z,102412.13
2022-09-21T06:45:06.099Z,102417.84
2022-09-21T06:50:10.432Z,102419.19
2022-09-21T06:55:13.478Z,102414.94
2022-09-21T07:00:16.598Z,102420.75
2022-09-21T07:05:20.487Z,102418.28
2022-09-21T07:10:23.040Z,102425.41
2022-09-21T07:15:28.949Z,102433.63
2022-09-21T07:20:32.833Z,102419.34
2022-09-21T07:25:35.376Z,102417.22
2022-09-21T07:30:38.442Z,102409.97
2022-09-21T07:35:52.057Z,102415.34
2022-09-21T07:40:54.790Z,102412.75
2022-09-21T07:45:57.960Z,102412.63
2022-09-21T07:51:06.161Z,102408.28
2022-09-21T07:56:10.917Z,102411.56
2022-09-21T08:01:13.795Z,102409.00
2022-09-21T08:06:17.966Z,102404.53
2022-09-21T08:11:22.375Z,102409.69
2022-09-21T08:16:25.293Z,102406.63
2022-09-21T08:21:29.478Z,102414.53
2022-09-21T08:26:33.811Z,102411.84
2022-09-21T08:31:36.581Z,102415.06
2022-09-21T08:36:40.888Z,102418.88
2022-09-21T08:41:58.708Z,102409.47
2022-09-21T08:47:07.050Z,102415.00
2022-09-21T08:52:16.334Z,102420.59
2022-09-21T08:57:21.234Z,102426.38
2022-09-21T09:02:38.444Z,102421.69
2022-09-21T09:08:02.926Z,102425.69
2022-09-21T09:13:22.190Z,102426.31
2022-09-21T09:18:34.390Z,102430.22
2022-09-21T09:23:44.423Z,102424.63
2022-09-21T09:28:53.312Z,102434.53
2022-09-21T09:34:02.441Z,102424.63
2022-09-21T09:39:12.683Z,102426.91
2022-09-21T09:44:38.782Z,102424.88
2022-09-21T09:49:53.524Z,102426.75
2022-09-21T09:54:57.476Z,102429.22
2022-09-21T10:00:03.893Z,102339.75
2022-09-21T10:05:22.052Z,102427.84
2022-09-21T10:10:32.815Z,102423.19
2022-09-21T10:15:43.102Z,102420.59
2022-09-21T10:20:58.247Z,102420.50
2022-09-21T10:26:05.102Z,102430.06
2022-09-21T10:31:18.736Z,102423.22
2022-09-21T10:36:28.802Z,102422.19
2022-09-21T10:41:33.220Z,102418.25
2022-09-21T10:46:36.826Z,102411.75
2022-09-21T10:51:39.608Z,102418.06
2022-09-21T10:56:54.442Z,102420.34
2022-09-21T11:01:58.991Z,102414.06
2022-09-21T11:07:08.936Z,102417.09
2022-09-21T11:12:33.919Z,102402.69
2022-09-21T11:17:42.113Z,102410.63
2022-09-21T11:22:57.238Z,102402.97
2022-09-21T11:28:09.984Z,102399.38
2022-09-21T11:33:27.690Z,102397.19
2022-09-21T11:38:47.047Z,102387.16
2022-09-21T11:44:10.014Z,102391.41
2022-09-21T11:49:38.666Z,102356.94
2022-09-21T11:54:58.454Z,102382.56
2022-09-21T12:00:15.271Z,102376.53
2022-09-21T12:05:23.724Z,102373.97
2022-09-21T12:10:40.562Z,102375.13
2022-09-21T12:15:50.435Z,102367.31
2022-09-21T12:21:05.288Z,102362.09
2022-09-21T12:26:11.306Z,102357.00
2022-09-21T12:31:21.603Z,102359.28
2022-09-21T12:36:29.089Z,102358.13
2022-09-21T12:41:40.743Z,102349.63
2022-09-21T12:46:52.920Z,102358.19
2022-09-21T12:52:00.396Z,102348.91
2022-09-21T12:57:29.724Z,102341.28
2022-09-21T13:02:42.681Z,102326.75
2022-09-21T13:08:06.339Z,102334.25
2022-09-21T13:13:20.204Z,102336.19
2022-09-21T13:18:33.769Z,102341.25
2022-09-21T13:23:41.890Z,102339.03
2022-09-21T13:29:06.518Z,102329.47
2022-09-21T13:34:25.156Z,102251.78
2022-09-21T13:39:28.059Z,102319.00
2022-09-21T13:44:43.814Z,102324.31
2022-09-21T13:49:54.871Z,102309.22
2022-09-21T13:55:04.006Z,102313.94
2022-09-21T14:00:34.821Z,102307.72
2022-09-21T14:05:43.719Z,102270.63
2022-09-21T14:11:00.339Z,102295.47
2022-09-21T14:16:51.890Z,102294.53
2022-09-21T14:22:28.451Z,102296.72
2022-09-21T14:27:35.247Z,102284.94
2022-09-21T14:32:44.431Z,102235.97
2022-09-21T14:37:52.044Z,102278.59
2022-09-21T14:42:58.724Z,102277.31
2022-09-21T14:48:09.569Z,102271.56
2022-09-21T14:53:45.267Z,102236.75
2022-09-21T14:59:00.799Z,102264.13
2022-09-21T15:04:19.897Z,102252.03
2022-09-21T15:10:02.905Z,102249.88
2022-09-21T15:15:24.060Z,102242.63
2022-09-21T15:20:28.420Z,102244.75
2022-09-21T15:25:34.371Z,102237.59
2022-09-21T15:30:45.796Z,102218.78
2022-09-21T15:35:48.406Z,102235.13
2022-09-21T15:40:51.211Z,102237.03
2022-09-21T15:45:59.060Z,102234.69
2022-09-21T15:51:07.559Z,102209.47
2022-09-21T15:56:19.028Z,102220.38
2022-09-21T16:01:23.708Z,102228.19
2022-09-21T16:06:37.190Z,102226.81
2022-09-21T16:11:39.750Z,102226.16
2022-09-21T16:17:16.760Z,102232.13
2022-09-21T16:22:24.271Z,102221.88
2022-09-21T16:27:30.185Z,102221.22
2022-09-21T16:32:34.212Z,102226.22
2022-09-21T16:37:38.125Z,102233.25
2022-09-21T16:42:44.143Z,102200.41
2022-09-21T16:47:46.934Z,102230.56
2022-09-21T16:52:51.982Z,102156.84
2022-09-21T16:57:54.566Z,102231.25
2022-09-21T17:02:57.269Z,102232.91
2022-09-21T17:08:01.203Z,102223.66
2022-09-21T17:13:06.183Z,102227.78
2022-09-21T17:18:11.476Z,102218.94
2022-09-21T17:23:15.608Z,102233.84
2022-09-21T17:28:25.881Z,102222.63
2022-09-21T17:33:29.042Z,102220.00
2022-09-21T17:38:34.773Z,102232.38
2022-09-21T17:43:46.405Z,102237.31
2022-09-21T17:48:49.541Z,102233.91
2022-09-21T17:53:54.072Z,102236.09
2022-09-21T17:59:01.503Z,102231.59
2022-09-21T18:04:04.967Z,102229.47
2022-09-21T18:09:12.777Z,102239.72
2022-09-21T18:14:28.484Z,102213.16
2022-09-21T18:19:45.367Z,102237.88
2022-09-21T18:24:51.135Z,102248.66
2022-09-21T18:29:54.296Z,102250.16
2022-09-21T18:35:10.447Z,102248.44
2022-09-21T18:40:23.256Z,102224.78
2022-09-21T18:45:29.306Z,102244.09
2022-09-21T18:50:40.645Z,102244.31
2022-09-21T18:55:45.418Z,102237.00
2022-09-21T19:00:48.655Z,102245.75
2022-09-21T19:06:08.147Z,102252.59
2022-09-21T19:11:24.938Z,102254.88
2022-09-21T19:16:33.874Z,102238.97
2022-09-21T19:21:58.297Z,102256.69
2022-09-21T19:27:20.711Z,102254.47
2022-09-21T19:32:33.972Z,102251.53
2022-09-21T19:37:38.410Z,102257.03
2022-09-21T19:43:04.047Z,102255.47
2022-09-21T19:48:12.395Z,102257.44
2022-09-21T19:53:34.270Z,102245.88
2022-09-21T19:58:57.311Z,102249.47
2022-09-21T20:04:02.009Z,102246.03
2022-09-21T20:09:14.525Z,102215.47
2022-09-21T20:14:33.005Z,102247.56
2022-09-21T20:19:47.151Z,102250.59
2022-09-21T20:24:58.142Z,102248.44
2022-09-21T20:30:02.467Z,102242.34
2022-09-21T20:35:15.060Z,102248.97
2022-09-21T20:40:17.788Z,102245.84
2022-09-21T20:45:23.130Z,102253.66
2022-09-21T20:50:26.529Z,102244.03
2022-09-21T20:55:29.080Z,102236.53
2022-09-21T21:00:47.056Z,102231.69
2022-09-21T21:05:50.022Z,102229.41
2022-09-21T21:10:56.495Z,102237.38
2022-09-21T21:16:00.863Z,102237.25
2022-09-21T21:21:05.522Z,102236.88
2022-09-21T21:26:08.062Z,102231.34
2022-09-21T21:31:16.167Z,102226.78
2022-09-21T21:36:22.045Z,102234.44
2022-09-21T21:41:24.686Z,102235.50
2022-09-21T21:46:29.722Z,102232.22
2022-09-21T21:51:32.656Z,102232.50
2022-09-21T21:56:35.236Z,102227.22
2022-09-21T22:01:40.104Z,102233.31
2022-09-21T22:06:43.320Z,102225.50
2022-09-21T22:11:46.432Z,102229.38
2022-09-21T22:16:51.286Z,102228.22
2022-09-21T22:21:54.842Z,102230.25
2022-09-21T22:26:57.667Z,102233.84
2022-09-21T22:32:01.999Z,102217.41
2022-09-21T22:37:04.566Z,102217.31
2022-09-21T22:42:07.326Z,102215.03
2022-09-21T22:47:11.186Z,102213.72
2022-09-21T22:52:13.714Z,102219.88
2022-09-21T22:57:16.266Z,102227.84
2022-09-21T23:02:20.160Z,102224.53
2022-09-21T23:07:22.716Z,102203.78
2022-09-21T23:12:25.274Z,102220.91
2022-09-21T23:17:30.235Z,102210.22
2022-09-21T23:22:32.772Z,102214.88
2022-09-21T23:27:35.811Z,102213.94
2022-09-21T23:32:39.831Z,102193.94
2022-09-21T23:37:42.380Z,102205.69
2022-09-21T23:42:44.925Z,102204.19
2022-09-21T23:47:48.813Z,102200.63
2022-09-21T23:52:51.376Z,102203.69
2022-09-21T23:57:53.907Z,102201.88
